sensor_id;sensor_type;location;lat;lon;timestamp;temperature;humidity
37658;DHT22;23500;53.268;8.308;2023-12-20T00:01:01;17.50;69.20
37658;DHT22;23500;53.268;8.308;2023-12-20T00:03:26;17.50;69.30
37658;DHT22;23500;53.268;8.308;2023-12-20T00:05:52;17.50;69.40
37658;DHT22;23500;53.268;8.308;2023-12-20T00:08:18;17.50;69.40
37658;DHT22;23500;53.268;8.308;2023-12-20T00:10:44;17.50;69.50
37658;DHT22;23500;53.268;8.308;2023-12-20T00:13:10;17.50;69.50
37658;DHT22;23500;53.268;8.308;2023-12-20T00:15:36;17.40;69.60
37658;DHT22;23500;53.268;8.308;2023-12-20T00:18:02;17.40;69.60
37658;DHT22;23500;53.268;8.308;2023-12-20T00:20:28;17.40;69.70
37658;DHT22;23500;53.268;8.308;2023-12-20T00:22:56;17.40;69.70
37658;DHT22;23500;53.268;8.308;2023-12-20T00:25:23;17.40;69.80
37658;DHT22;23500;53.268;8.308;2023-12-20T00:27:49;17.40;69.80
37658;DHT22;23500;53.268;8.308;2023-12-20T00:30:14;17.30;69.80
37658;DHT22;23500;53.268;8.308;2023-12-20T00:32:40;17.30;69.90
37658;DHT22;23500;53.268;8.308;2023-12-20T00:35:15;17.30;69.90
37658;DHT22;23500;53.268;8.308;2023-12-20T00:37:41;17.30;70.00
37658;DHT22;23500;53.268;8.308;2023-12-20T00:40:07;17.30;70.10
37658;DHT22;23500;53.268;8.308;2023-12-20T00:42:33;17.30;70.10
37658;DHT22;23500;53.268;8.308;2023-12-20T00:44:59;17.30;70.20
37658;DHT22;23500;53.268;8.308;2023-12-20T00:47:25;17.20;70.20
37658;DHT22;23500;53.268;8.308;2023-12-20T00:49:51;17.20;70.20
37658;DHT22;23500;53.268;8.308;2023-12-20T00:52:18;17.20;70.30
37658;DHT22;23500;53.268;8.308;2023-12-20T00:54:44;17.20;71.10
37658;DHT22;23500;53.268;8.308;2023-12-20T00:57:10;17.20;70.40
37658;DHT22;23500;53.268;8.308;2023-12-20T00:59:35;17.20;70.40
37658;DHT22;23500;53.268;8.308;2023-12-20T01:02:01;17.20;70.40
37658;DHT22;23500;53.268;8.308;2023-12-20T01:04:27;17.20;70.50
37658;DHT22;23500;53.268;8.308;2023-12-20T01:06:53;17.20;70.60
37658;DHT22;23500;53.268;8.308;2023-12-20T01:09:19;17.10;70.50
37658;DHT22;23500;53.268;8.308;2023-12-20T01:11:45;17.10;70.60
37658;DHT22;23500;53.268;8.308;2023-12-20T01:14:12;17.10;70.70
37658;DHT22;23500;53.268;8.308;2023-12-20T01:16:38;17.10;70.60
37658;DHT22;23500;53.268;8.308;2023-12-20T01:19:03;17.10;70.70
37658;DHT22;23500;53.268;8.308;2023-12-20T01:21:29;17.10;70.80
37658;DHT22;23500;53.268;8.308;2023-12-20T01:23:55;17.10;70.80
37658;DHT22;23500;53.268;8.308;2023-12-20T01:26:20;17.00;70.80
37658;DHT22;23500;53.268;8.308;2023-12-20T01:28:46;17.10;70.90
37658;DHT22;23500;53.268;8.308;2023-12-20T01:31:12;17.00;70.90
37658;DHT22;23500;53.268;8.308;2023-12-20T01:33:37;17.00;70.90
37658;DHT22;23500;53.268;8.308;2023-12-20T01:36:04;17.00;70.90
37658;DHT22;23500;53.268;8.308;2023-12-20T01:38:29;17.00;71.00
37658;DHT22;23500;53.268;8.308;2023-12-20T01:40:55;17.00;71.10
37658;DHT22;23500;53.268;8.308;2023-12-20T01:43:21;17.00;71.10
37658;DHT22;23500;53.268;8.308;2023-12-20T01:45:47;17.00;71.10
37658;DHT22;23500;53.268;8.308;2023-12-20T01:48:15;17.00;71.20
37658;DHT22;23500;53.268;8.308;2023-12-20T01:50:41;16.90;71.20
37658;DHT22;23500;53.268;8.308;2023-12-20T01:53:09;16.90;71.90
37658;DHT22;23500;53.268;8.308;2023-12-20T01:55:39;16.90;71.20
37658;DHT22;23500;53.268;8.308;2023-12-20T01:58:07;16.90;71.20
37658;DHT22;23500;53.268;8.308;2023-12-20T02:00:34;16.90;71.30
37658;DHT22;23500;53.268;8.308;2023-12-20T02:03:01;16.90;71.30
37658;DHT22;23500;53.268;8.308;2023-12-20T02:05:28;16.90;71.40
37658;DHT22;23500;53.268;8.308;2023-12-20T02:07:54;16.90;71.50
37658;DHT22;23500;53.268;8.308;2023-12-20T02:10:20;16.90;71.40
37658;DHT22;23500;53.268;8.308;2023-12-20T02:12:46;16.80;71.40
37658;DHT22;23500;53.268;8.308;2023-12-20T02:15:12;16.80;71.50
37658;DHT22;23500;53.268;8.308;2023-12-20T02:17:38;16.80;71.50
37658;DHT22;23500;53.268;8.308;2023-12-20T02:20:05;16.80;71.50
37658;DHT22;23500;53.268;8.308;2023-12-20T02:22:31;16.80;71.50
37658;DHT22;23500;53.268;8.308;2023-12-20T02:24:57;16.80;71.60
37658;DHT22;23500;53.268;8.308;2023-12-20T02:27:23;16.80;71.60
37658;DHT22;23500;53.268;8.308;2023-12-20T02:29:50;16.80;71.60
37658;DHT22;23500;53.268;8.308;2023-12-20T02:32:17;16.80;71.70
37658;DHT22;23500;53.268;8.308;2023-12-20T02:34:43;16.80;71.80
37658;DHT22;23500;53.268;8.308;2023-12-20T02:37:09;16.80;71.70
37658;DHT22;23500;53.268;8.308;2023-12-20T02:39:35;16.70;71.70
37658;DHT22;23500;53.268;8.308;2023-12-20T02:42:01;16.70;71.70
37658;DHT22;23500;53.268;8.308;2023-12-20T02:44:26;16.70;71.80
37658;DHT22;23500;53.268;8.308;2023-12-20T02:46:52;16.70;71.90
37658;DHT22;23500;53.268;8.308;2023-12-20T02:49:18;16.70;71.90
37658;DHT22;23500;53.268;8.308;2023-12-20T02:51:43;16.70;72.00
37658;DHT22;23500;53.268;8.308;2023-12-20T02:54:09;16.70;72.00
37658;DHT22;23500;53.268;8.308;2023-12-20T02:56:35;16.70;72.10
37658;DHT22;23500;53.268;8.308;2023-12-20T02:59:01;16.60;72.10
37658;DHT22;23500;53.268;8.308;2023-12-20T03:01:28;16.60;72.10
37658;DHT22;23500;53.268;8.308;2023-12-20T03:03:53;16.60;72.10
37658;DHT22;23500;53.268;8.308;2023-12-20T03:06:19;16.60;72.20
37658;DHT22;23500;53.268;8.308;2023-12-20T03:08:45;16.60;72.20
37658;DHT22;23500;53.268;8.308;2023-12-20T03:11:11;16.60;72.20
37658;DHT22;23500;53.268;8.308;2023-12-20T03:13:36;16.60;72.30
37658;DHT22;23500;53.268;8.308;2023-12-20T03:16:11;16.60;72.30
37658;DHT22;23500;53.268;8.308;2023-12-20T03:18:37;16.60;72.30
37658;DHT22;23500;53.268;8.308;2023-12-20T03:21:05;16.60;72.40
37658;DHT22;23500;53.268;8.308;2023-12-20T03:23:30;16.60;72.50
37658;DHT22;23500;53.268;8.308;2023-12-20T03:25:58;16.60;72.50
37658;DHT22;23500;53.268;8.308;2023-12-20T03:28:24;16.60;72.40
37658;DHT22;23500;53.268;8.308;2023-12-20T03:30:50;16.50;72.40
37658;DHT22;23500;53.268;8.308;2023-12-20T03:33:16;16.50;72.40
37658;DHT22;23500;53.268;8.308;2023-12-20T03:35:42;16.50;72.50
37658;DHT22;23500;53.268;8.308;2023-12-20T03:38:07;16.50;72.50
37658;DHT22;23500;53.268;8.308;2023-12-20T03:40:33;16.50;72.60
37658;DHT22;23500;53.268;8.308;2023-12-20T03:42:59;16.50;72.50
37658;DHT22;23500;53.268;8.308;2023-12-20T03:45:25;16.50;72.60
37658;DHT22;23500;53.268;8.308;2023-12-20T03:47:51;16.50;72.60
37658;DHT22;23500;53.268;8.308;2023-12-20T03:50:22;16.50;72.60
37658;DHT22;23500;53.268;8.308;2023-12-20T03:52:47;16.50;72.60
37658;DHT22;23500;53.268;8.308;2023-12-20T03:55:13;16.50;72.60
37658;DHT22;23500;53.268;8.308;2023-12-20T03:57:39;16.50;72.60
37658;DHT22;23500;53.268;8.308;2023-12-20T04:00:06;16.50;72.70
37658;DHT22;23500;53.268;8.308;2023-12-20T04:02:36;16.50;72.70
37658;DHT22;23500;53.268;8.308;2023-12-20T04:05:02;16.50;72.60
37658;DHT22;23500;53.268;8.308;2023-12-20T04:07:27;16.40;72.70
37658;DHT22;23500;53.268;8.308;2023-12-20T04:09:53;16.40;72.60
37658;DHT22;23500;53.268;8.308;2023-12-20T04:12:19;16.40;72.70
37658;DHT22;23500;53.268;8.308;2023-12-20T04:14:44;16.40;72.70
37658;DHT22;23500;53.268;8.308;2023-12-20T04:17:10;16.40;72.70
37658;DHT22;23500;53.268;8.308;2023-12-20T04:19:36;16.40;72.70
37658;DHT22;23500;53.268;8.308;2023-12-20T04:22:01;16.40;72.70
37658;DHT22;23500;53.268;8.308;2023-12-20T04:24:27;16.40;72.70
37658;DHT22;23500;53.268;8.308;2023-12-20T04:26:53;16.40;72.70
37658;DHT22;23500;53.268;8.308;2023-12-20T04:29:18;16.40;72.80
37658;DHT22;23500;53.268;8.308;2023-12-20T04:31:44;16.40;72.80
37658;DHT22;23500;53.268;8.308;2023-12-20T04:34:10;16.40;72.90
37658;DHT22;23500;53.268;8.308;2023-12-20T04:36:35;16.40;72.80
37658;DHT22;23500;53.268;8.308;2023-12-20T04:39:01;16.40;72.70
37658;DHT22;23500;53.268;8.308;2023-12-20T04:41:27;16.50;72.70
37658;DHT22;23500;53.268;8.308;2023-12-20T04:43:53;16.60;72.60
37658;DHT22;23500;53.268;8.308;2023-12-20T04:46:18;16.70;72.30
37658;DHT22;23500;53.268;8.308;2023-12-20T04:48:44;17.10;71.70
37658;DHT22;23500;53.268;8.308;2023-12-20T04:51:10;17.70;69.80
37658;DHT22;23500;53.268;8.308;2023-12-20T04:53:35;18.30;67.90
37658;DHT22;23500;53.268;8.308;2023-12-20T04:56:01;18.80;66.10
37658;DHT22;23500;53.268;8.308;2023-12-20T04:58:27;19.40;64.50
37658;DHT22;23500;53.268;8.308;2023-12-20T05:00:53;20.20;62.10
37658;DHT22;23500;53.268;8.308;2023-12-20T05:03:18;21.40;58.70
37658;DHT22;23500;53.268;8.308;2023-12-20T05:05:44;22.40;56.00
37658;DHT22;23500;53.268;8.308;2023-12-20T05:08:09;23.10;54.20
37658;DHT22;23500;53.268;8.308;2023-12-20T05:10:35;23.70;52.80
37658;DHT22;23500;53.268;8.308;2023-12-20T05:13:02;24.10;51.80
37658;DHT22;23500;53.268;8.308;2023-12-20T05:15:28;24.50;52.30
37658;DHT22;23500;53.268;8.308;2023-12-20T05:17:53;24.50;50.60
37658;DHT22;23500;53.268;8.308;2023-12-20T05:20:19;24.40;51.10
37658;DHT22;23500;53.268;8.308;2023-12-20T05:22:44;24.10;51.30
37658;DHT22;23500;53.268;8.308;2023-12-20T05:25:10;23.90;51.90
37658;DHT22;23500;53.268;8.308;2023-12-20T05:27:36;23.60;52.20
37658;DHT22;23500;53.268;8.308;2023-12-20T05:30:02;23.40;52.70
37658;DHT22;23500;53.268;8.308;2023-12-20T05:32:29;23.10;53.20
37658;DHT22;23500;53.268;8.308;2023-12-20T05:34:55;22.80;54.00
37658;DHT22;23500;53.268;8.308;2023-12-20T05:37:21;22.60;54.50
37658;DHT22;23500;53.268;8.308;2023-12-20T05:39:46;22.40;54.90
37658;DHT22;23500;53.268;8.308;2023-12-20T05:42:12;22.10;55.60
37658;DHT22;23500;53.268;8.308;2023-12-20T05:44:38;21.90;56.00
37658;DHT22;23500;53.268;8.308;2023-12-20T05:47:04;21.60;56.50
37658;DHT22;23500;53.268;8.308;2023-12-20T05:49:29;21.30;57.10
37658;DHT22;23500;53.268;8.308;2023-12-20T05:51:55;21.00;57.80
37658;DHT22;23500;53.268;8.308;2023-12-20T05:54:21;20.70;58.40
37658;DHT22;23500;53.268;8.308;2023-12-20T05:56:47;20.40;59.20
37658;DHT22;23500;53.268;8.308;2023-12-20T05:59:13;20.20;60.00
37658;DHT22;23500;53.268;8.308;2023-12-20T06:01:39;20.00;60.60
37658;DHT22;23500;53.268;8.308;2023-12-20T06:04:04;19.70;61.30
37658;DHT22;23500;53.268;8.308;2023-12-20T06:06:30;19.50;62.00
37658;DHT22;23500;53.268;8.308;2023-12-20T06:08:56;19.40;62.60
37658;DHT22;23500;53.268;8.308;2023-12-20T06:11:22;19.40;62.80
37658;DHT22;23500;53.268;8.308;2023-12-20T06:13:48;19.60;62.60
37658;DHT22;23500;53.268;8.308;2023-12-20T06:16:17;20.00;61.60
37658;DHT22;23500;53.268;8.308;2023-12-20T06:18:42;21.00;59.20
37658;DHT22;23500;53.268;8.308;2023-12-20T06:21:08;21.40;58.00
37658;DHT22;23500;53.268;8.308;2023-12-20T06:23:38;21.50;57.40
37658;DHT22;23500;53.268;8.308;2023-12-20T06:26:04;21.60;57.10
37658;DHT22;23500;53.268;8.308;2023-12-20T06:28:29;21.80;56.60
37658;DHT22;23500;53.268;8.308;2023-12-20T06:30:55;22.00;56.10
37658;DHT22;23500;53.268;8.308;2023-12-20T06:33:22;22.00;55.90
37658;DHT22;23500;53.268;8.308;2023-12-20T06:35:49;22.00;55.90
37658;DHT22;23500;53.268;8.308;2023-12-20T06:38:14;21.90;55.90
37658;DHT22;23500;53.268;8.308;2023-12-20T06:40:40;21.90;56.00
37658;DHT22;23500;53.268;8.308;2023-12-20T06:43:06;21.90;56.00
37658;DHT22;23500;53.268;8.308;2023-12-20T06:45:32;21.90;56.00
37658;DHT22;23500;53.268;8.308;2023-12-20T06:47:58;21.70;56.50
37658;DHT22;23500;53.268;8.308;2023-12-20T06:50:24;21.50;56.80
37658;DHT22;23500;53.268;8.308;2023-12-20T06:52:49;21.20;57.40
37658;DHT22;23500;53.268;8.308;2023-12-20T06:55:15;20.90;58.10
37658;DHT22;23500;53.268;8.308;2023-12-20T06:57:42;20.60;58.80
37658;DHT22;23500;53.268;8.308;2023-12-20T07:00:08;20.30;59.40
37658;DHT22;23500;53.268;8.308;2023-12-20T07:02:36;20.10;60.00
37658;DHT22;23500;53.268;8.308;2023-12-20T07:05:02;19.90;60.50
37658;DHT22;23500;53.268;8.308;2023-12-20T07:07:27;19.70;60.90
37658;DHT22;23500;53.268;8.308;2023-12-20T07:09:53;19.60;61.40
37658;DHT22;23500;53.268;8.308;2023-12-20T07:12:19;19.40;61.80
37658;DHT22;23500;53.268;8.308;2023-12-20T07:14:45;19.30;62.10
37658;DHT22;23500;53.268;8.308;2023-12-20T07:17:11;19.30;62.50
37658;DHT22;23500;53.268;8.308;2023-12-20T07:19:39;19.20;62.80
37658;DHT22;23500;53.268;8.308;2023-12-20T07:22:06;19.10;63.00
37658;DHT22;23500;53.268;8.308;2023-12-20T07:24:32;19.00;63.30
37658;DHT22;23500;53.268;8.308;2023-12-20T07:26:58;19.00;63.50
37658;DHT22;23500;53.268;8.308;2023-12-20T07:29:25;19.10;63.40
37658;DHT22;23500;53.268;8.308;2023-12-20T07:31:50;19.60;62.40
37658;DHT22;23500;53.268;8.308;2023-12-20T07:34:17;20.30;60.60
37658;DHT22;23500;53.268;8.308;2023-12-20T07:36:43;21.10;58.50
37658;DHT22;23500;53.268;8.308;2023-12-20T07:39:08;21.50;57.20
37658;DHT22;23500;53.268;8.308;2023-12-20T07:41:34;21.70;56.70
37658;DHT22;23500;53.268;8.308;2023-12-20T07:44:00;21.80;56.40
37658;DHT22;23500;53.268;8.308;2023-12-20T07:46:25;21.80;56.10
37658;DHT22;23500;53.268;8.308;2023-12-20T07:48:51;21.90;56.00
37658;DHT22;23500;53.268;8.308;2023-12-20T07:51:17;21.90;56.00
37658;DHT22;23500;53.268;8.308;2023-12-20T07:53:43;21.80;56.00
37658;DHT22;23500;53.268;8.308;2023-12-20T07:58:41;21.60;56.30
37658;DHT22;23500;53.268;8.308;2023-12-20T08:01:06;21.50;56.60
37658;DHT22;23500;53.268;8.308;2023-12-20T08:03:32;21.30;57.00
37658;DHT22;23500;53.268;8.308;2023-12-20T08:05:58;21.10;57.40
37658;DHT22;23500;53.268;8.308;2023-12-20T08:08:25;20.90;58.00
37658;DHT22;23500;53.268;8.308;2023-12-20T08:10:50;20.70;58.40
37658;DHT22;23500;53.268;8.308;2023-12-20T08:13:16;20.90;58.20
37658;DHT22;23500;53.268;8.308;2023-12-20T08:15:42;21.20;57.60
37658;DHT22;23500;53.268;8.308;2023-12-20T08:18:07;21.30;57.30
37658;DHT22;23500;53.268;8.308;2023-12-20T08:20:33;21.20;57.30
37658;DHT22;23500;53.268;8.308;2023-12-20T08:22:59;21.30;57.20
37658;DHT22;23500;53.268;8.308;2023-12-20T08:25:24;21.30;57.10
37658;DHT22;23500;53.268;8.308;2023-12-20T08:27:50;21.20;57.40
37658;DHT22;23500;53.268;8.308;2023-12-20T08:30:15;21.20;57.30
37658;DHT22;23500;53.268;8.308;2023-12-20T08:32:46;21.30;57.20
37658;DHT22;23500;53.268;8.308;2023-12-20T08:35:11;21.40;57.00
37658;DHT22;23500;53.268;8.308;2023-12-20T08:37:37;21.60;56.50
37658;DHT22;23500;53.268;8.308;2023-12-20T08:40:03;21.70;56.40
37658;DHT22;23500;53.268;8.308;2023-12-20T08:42:29;21.70;56.40
37658;DHT22;23500;53.268;8.308;2023-12-20T08:44:57;21.70;56.40
37658;DHT22;23500;53.268;8.308;2023-12-20T08:47:24;21.60;56.40
37658;DHT22;23500;53.268;8.308;2023-12-20T08:49:50;21.60;56.50
37658;DHT22;23500;53.268;8.308;2023-12-20T08:52:15;21.50;56.50
37658;DHT22;23500;53.268;8.308;2023-12-20T08:54:41;21.60;56.50
37658;DHT22;23500;53.268;8.308;2023-12-20T08:57:07;21.70;56.30
37658;DHT22;23500;53.268;8.308;2023-12-20T08:59:33;21.80;56.10
37658;DHT22;23500;53.268;8.308;2023-12-20T09:01:59;21.80;56.10
37658;DHT22;23500;53.268;8.308;2023-12-20T09:04:25;21.80;56.20
37658;DHT22;23500;53.268;8.308;2023-12-20T09:06:50;21.70;56.30
37658;DHT22;23500;53.268;8.308;2023-12-20T09:09:16;21.60;56.40
37658;DHT22;23500;53.268;8.308;2023-12-20T09:11:42;21.60;56.50
37658;DHT22;23500;53.268;8.308;2023-12-20T09:14:08;21.60;56.60
37658;DHT22;23500;53.268;8.308;2023-12-20T09:16:33;21.50;56.80
37658;DHT22;23500;53.268;8.308;2023-12-20T09:18:59;21.50;56.70
37658;DHT22;23500;53.268;8.308;2023-12-20T09:21:25;21.60;56.60
37658;DHT22;23500;53.268;8.308;2023-12-20T09:23:51;21.70;56.30
37658;DHT22;23500;53.268;8.308;2023-12-20T09:26:16;21.80;56.20
37658;DHT22;23500;53.268;8.308;2023-12-20T09:28:42;21.80;56.20
37658;DHT22;23500;53.268;8.308;2023-12-20T09:31:08;21.70;56.30
37658;DHT22;23500;53.268;8.308;2023-12-20T09:33:33;21.70;56.40
37658;DHT22;23500;53.268;8.308;2023-12-20T09:35:59;21.70;56.50
37658;DHT22;23500;53.268;8.308;2023-12-20T09:38:25;21.60;56.60
37658;DHT22;23500;53.268;8.308;2023-12-20T09:40:51;21.60;56.60
37658;DHT22;23500;53.268;8.308;2023-12-20T09:43:19;21.70;56.50
37658;DHT22;23500;53.268;8.308;2023-12-20T09:45:47;21.70;56.60
37658;DHT22;23500;53.268;8.308;2023-12-20T09:48:13;21.80;56.40
37658;DHT22;23500;53.268;8.308;2023-12-20T09:50:43;21.80;56.80
37658;DHT22;23500;53.268;8.308;2023-12-20T09:53:10;21.70;56.30
37658;DHT22;23500;53.268;8.308;2023-12-20T09:55:38;21.70;56.40
37658;DHT22;23500;53.268;8.308;2023-12-20T09:58:05;21.70;56.50
37658;DHT22;23500;53.268;8.308;2023-12-20T10:00:32;21.60;56.50
37658;DHT22;23500;53.268;8.308;2023-12-20T10:02:59;21.50;56.70
37658;DHT22;23500;53.268;8.308;2023-12-20T10:05:30;21.40;56.80
37658;DHT22;23500;53.268;8.308;2023-12-20T10:07:56;21.50;56.80
37658;DHT22;23500;53.268;8.308;2023-12-20T10:10:22;21.50;56.70
37658;DHT22;23500;53.268;8.308;2023-12-20T10:13:10;21.40;56.80
37658;DHT22;23500;53.268;8.308;2023-12-20T10:15:37;21.30;57.10
37658;DHT22;23500;53.268;8.308;2023-12-20T10:18:03;21.20;57.80
37658;DHT22;23500;53.268;8.308;2023-12-20T10:20:31;21.10;57.40
37658;DHT22;23500;53.268;8.308;2023-12-20T10:23:00;20.90;57.90
37658;DHT22;23500;53.268;8.308;2023-12-20T10:25:26;20.70;58.30
37658;DHT22;23500;53.268;8.308;2023-12-20T10:30:36;20.40;59.30
37658;DHT22;23500;53.268;8.308;2023-12-20T10:33:02;20.20;59.70
37658;DHT22;23500;53.268;8.308;2023-12-20T10:35:28;20.60;59.20
37658;DHT22;23500;53.268;8.308;2023-12-20T10:37:56;21.10;58.10
37658;DHT22;23500;53.268;8.308;2023-12-20T10:40:25;21.60;57.10
37658;DHT22;23500;53.268;8.308;2023-12-20T10:42:51;22.00;56.00
37658;DHT22;23500;53.268;8.308;2023-12-20T10:45:17;22.30;55.40
37658;DHT22;23500;53.268;8.308;2023-12-20T10:47:46;22.20;55.30
37658;DHT22;23500;53.268;8.308;2023-12-20T10:50:12;22.20;55.40
37658;DHT22;23500;53.268;8.308;2023-12-20T10:52:38;22.20;55.20
37658;DHT22;23500;53.268;8.308;2023-12-20T10:55:06;22.30;55.00
37658;DHT22;23500;53.268;8.308;2023-12-20T10:57:33;22.40;54.80
37658;DHT22;23500;53.268;8.308;2023-12-20T11:00:01;22.50;54.60
37658;DHT22;23500;53.268;8.308;2023-12-20T11:02:32;22.50;54.60
37658;DHT22;23500;53.268;8.308;2023-12-20T11:05:46;22.40;54.60
37658;DHT22;23500;53.268;8.308;2023-12-20T11:08:17;22.30;54.80
37658;DHT22;23500;53.268;8.308;2023-12-20T11:11:03;22.00;55.50
37658;DHT22;23500;53.268;8.308;2023-12-20T11:16:19;21.80;56.10
37658;DHT22;23500;53.268;8.308;2023-12-20T11:18:45;21.60;56.40
37658;DHT22;23500;53.268;8.308;2023-12-20T11:21:11;21.50;56.70
37658;DHT22;23500;53.268;8.308;2023-12-20T11:23:37;21.30;57.00
37658;DHT22;23500;53.268;8.308;2023-12-20T11:26:03;21.20;57.20
37658;DHT22;23500;53.268;8.308;2023-12-20T11:28:29;21.20;57.50
37658;DHT22;23500;53.268;8.308;2023-12-20T11:31:00;21.10;57.60
37658;DHT22;23500;53.268;8.308;2023-12-20T11:33:29;20.90;58.00
37658;DHT22;23500;53.268;8.308;2023-12-20T11:35:56;20.80;58.30
37658;DHT22;23500;53.268;8.308;2023-12-20T11:38:23;20.90;58.20
37658;DHT22;23500;53.268;8.308;2023-12-20T11:40:49;20.90;58.20
37658;DHT22;23500;53.268;8.308;2023-12-20T11:43:35;20.90;58.10
37658;DHT22;23500;53.268;8.308;2023-12-20T11:46:09;20.90;58.10
37658;DHT22;23500;53.268;8.308;2023-12-20T11:48:36;20.90;58.10
37658;DHT22;23500;53.268;8.308;2023-12-20T11:51:02;21.10;57.90
37658;DHT22;23500;53.268;8.308;2023-12-20T11:53:29;21.30;57.40
37658;DHT22;23500;53.268;8.308;2023-12-20T11:55:57;21.60;56.80
37658;DHT22;23500;53.268;8.308;2023-12-20T11:58:23;21.60;56.70
37658;DHT22;23500;53.268;8.308;2023-12-20T12:00:50;21.60;56.60
37658;DHT22;23500;53.268;8.308;2023-12-20T12:03:16;21.80;56.30
37658;DHT22;23500;53.268;8.308;2023-12-20T12:05:42;22.00;56.00
37658;DHT22;23500;53.268;8.308;2023-12-20T12:08:07;22.10;55.60
37658;DHT22;23500;53.268;8.308;2023-12-20T12:10:33;22.20;55.30
37658;DHT22;23500;53.268;8.308;2023-12-20T12:12:59;22.40;54.90
37658;DHT22;23500;53.268;8.308;2023-12-20T12:15:26;22.40;54.70
37658;DHT22;23500;53.268;8.308;2023-12-20T12:17:55;22.40;54.60
37658;DHT22;23500;53.268;8.308;2023-12-20T12:20:22;22.30;54.70
37658;DHT22;23500;53.268;8.308;2023-12-20T12:23:01;22.20;55.10
37658;DHT22;23500;53.268;8.308;2023-12-20T12:25:31;22.00;55.40
37658;DHT22;23500;53.268;8.308;2023-12-20T12:28:00;21.90;55.80
37658;DHT22;23500;53.268;8.308;2023-12-20T12:30:26;21.70;56.00
37658;DHT22;23500;53.268;8.308;2023-12-20T12:32:52;21.60;56.40
37658;DHT22;23500;53.268;8.308;2023-12-20T12:35:19;21.40;56.60
37658;DHT22;23500;53.268;8.308;2023-12-20T12:37:45;21.20;57.10
37658;DHT22;23500;53.268;8.308;2023-12-20T12:40:12;21.20;57.30
37658;DHT22;23500;53.268;8.308;2023-12-20T12:42:39;21.10;57.50
37658;DHT22;23500;53.268;8.308;2023-12-20T12:45:05;21.10;57.60
37658;DHT22;23500;53.268;8.308;2023-12-20T12:47:31;21.00;57.70
37658;DHT22;23500;53.268;8.308;2023-12-20T12:49:58;21.10;57.70
37658;DHT22;23500;53.268;8.308;2023-12-20T12:52:23;21.10;57.70
37658;DHT22;23500;53.268;8.308;2023-12-20T12:54:49;21.10;57.70
37658;DHT22;23500;53.268;8.308;2023-12-20T12:57:15;21.10;57.70
37658;DHT22;23500;53.268;8.308;2023-12-20T12:59:45;21.00;57.80
37658;DHT22;23500;53.268;8.308;2023-12-20T13:02:14;20.90;58.00
37658;DHT22;23500;53.268;8.308;2023-12-20T13:04:40;21.00;57.80
37658;DHT22;23500;53.268;8.308;2023-12-20T13:07:09;21.00;57.90
37658;DHT22;23500;53.268;8.308;2023-12-20T13:09:39;21.10;57.70
37658;DHT22;23500;53.268;8.308;2023-12-20T13:12:06;21.40;57.30
37658;DHT22;23500;53.268;8.308;2023-12-20T13:14:33;21.60;56.70
37658;DHT22;23500;53.268;8.308;2023-12-20T13:17:00;21.80;56.10
37658;DHT22;23500;53.268;8.308;2023-12-20T13:19:26;21.80;56.10
37658;DHT22;23500;53.268;8.308;2023-12-20T13:21:51;21.80;56.10
37658;DHT22;23500;53.268;8.308;2023-12-20T13:24:17;21.80;56.00
37658;DHT22;23500;53.268;8.308;2023-12-20T13:26:44;21.80;56.10
37658;DHT22;23500;53.268;8.308;2023-12-20T13:29:10;21.70;56.30
37658;DHT22;23500;53.268;8.308;2023-12-20T13:31:43;21.60;56.50
37658;DHT22;23500;53.268;8.308;2023-12-20T13:34:08;21.60;56.50
37658;DHT22;23500;53.268;8.308;2023-12-20T13:36:34;21.50;56.60
37658;DHT22;23500;53.268;8.308;2023-12-20T13:39:01;21.50;56.80
37658;DHT22;23500;53.268;8.308;2023-12-20T13:41:28;21.50;56.80
37658;DHT22;23500;53.268;8.308;2023-12-20T13:43:54;21.50;56.70
37658;DHT22;23500;53.268;8.308;2023-12-20T13:46:20;21.60;56.60
37658;DHT22;23500;53.268;8.308;2023-12-20T13:48:45;21.70;56.30
37658;DHT22;23500;53.268;8.308;2023-12-20T13:51:11;21.80;56.10
37658;DHT22;23500;53.268;8.308;2023-12-20T13:53:37;21.70;56.20
37658;DHT22;23500;53.268;8.308;2023-12-20T13:56:04;21.60;56.40
37658;DHT22;23500;53.268;8.308;2023-12-20T13:58:29;21.70;56.30
37658;DHT22;23500;53.268;8.308;2023-12-20T14:00:56;21.70;56.20
37658;DHT22;23500;53.268;8.308;2023-12-20T14:03:22;21.80;56.00
37658;DHT22;23500;53.268;8.308;2023-12-20T14:05:47;21.90;55.90
37658;DHT22;23500;53.268;8.308;2023-12-20T14:08:13;21.90;55.80
37658;DHT22;23500;53.268;8.308;2023-12-20T14:10:39;21.90;55.80
37658;DHT22;23500;53.268;8.308;2023-12-20T14:13:04;21.80;56.00
37658;DHT22;23500;53.268;8.308;2023-12-20T14:15:31;21.70;56.20
37658;DHT22;23500;53.268;8.308;2023-12-20T14:18:05;21.70;56.30
37658;DHT22;23500;53.268;8.308;2023-12-20T14:20:34;21.60;56.40
37658;DHT22;23500;53.268;8.308;2023-12-20T14:23:01;21.40;56.60
37658;DHT22;23500;53.268;8.308;2023-12-20T14:25:27;21.40;56.90
37658;DHT22;23500;53.268;8.308;2023-12-20T14:27:52;21.30;56.90
37658;DHT22;23500;53.268;8.308;2023-12-20T14:30:18;21.30;57.10
37658;DHT22;23500;53.268;8.308;2023-12-20T14:32:44;21.20;57.30
37658;DHT22;23500;53.268;8.308;2023-12-20T14:35:09;21.10;57.40
37658;DHT22;23500;53.268;8.308;2023-12-20T14:37:36;21.00;57.60
37658;DHT22;23500;53.268;8.308;2023-12-20T14:40:08;20.90;58.00
37658;DHT22;23500;53.268;8.308;2023-12-20T14:42:39;20.80;58.20
37658;DHT22;23500;53.268;8.308;2023-12-20T14:45:05;20.70;58.40
37658;DHT22;23500;53.268;8.308;2023-12-20T14:47:31;20.80;58.50
37658;DHT22;23500;53.268;8.308;2023-12-20T14:49:56;21.00;58.00
37658;DHT22;23500;53.268;8.308;2023-12-20T14:52:22;21.10;57.70
37658;DHT22;23500;53.268;8.308;2023-12-20T14:54:49;21.10;57.60
37658;DHT22;23500;53.268;8.308;2023-12-20T14:57:14;21.10;57.60
37658;DHT22;23500;53.268;8.308;2023-12-20T14:59:40;21.20;57.60
37658;DHT22;23500;53.268;8.308;2023-12-20T15:02:06;21.10;57.90
37658;DHT22;23500;53.268;8.308;2023-12-20T15:04:32;21.20;57.70
37658;DHT22;23500;53.268;8.308;2023-12-20T15:06:58;21.30;57.20
37658;DHT22;23500;53.268;8.308;2023-12-20T15:09:23;21.40;57.20
37658;DHT22;23500;53.268;8.308;2023-12-20T15:11:50;21.40;57.00
37658;DHT22;23500;53.268;8.308;2023-12-20T15:14:16;21.40;56.90
37658;DHT22;23500;53.268;8.308;2023-12-20T15:16:45;21.40;56.90
37658;DHT22;23500;53.268;8.308;2023-12-20T15:19:14;21.40;57.00
37658;DHT22;23500;53.268;8.308;2023-12-20T15:21:40;21.20;57.20
37658;DHT22;23500;53.268;8.308;2023-12-20T15:24:13;20.90;57.80
37658;DHT22;23500;53.268;8.308;2023-12-20T15:26:45;20.50;58.70
37658;DHT22;23500;53.268;8.308;2023-12-20T15:29:12;20.30;59.50
37658;DHT22;23500;53.268;8.308;2023-12-20T15:31:45;20.10;59.90
37658;DHT22;23500;53.268;8.308;2023-12-20T15:34:12;19.90;60.30